sensor_id;sensor_type;location;lat;lon;timestamp;pressure;altitude;pressure_sealevel;temperature;humidity
48636;BME280;34429;52.332;5.614;2022-09-03T00:00:04;101172.81;;;16.73;100.00
48636;BME280;34429;52.332;5.614;2022-09-03T00:02:38;101170.28;;;16.80;100.00
48636;BME280;34429;52.332;5.614;2022-09-03T00:05:14;101171.81;;;16.74;100.00
48636;BME280;34429;52.332;5.614;2022-09-03T00:07:53;101168.06;;;16.67;100.00
48636;BME280;34429;52.332;5.614;2022-09-03T00:10:27;101162.97;;;16.64;100.00
48636;BME280;34429;52.332;5.614;2022-09-03T00:13:00;101161.78;;;16.67;100.00
48636;BME280;34429;52.332;5.614;2022-09-03T00:15:31;101157.88;;;16.61;100.00
48636;BME280;34429;52.332;5.614;2022-09-03T00:18:04;101162.94;;;16.56;100.00
48636;BME280;34429;52.332;5.614;2022-09-03T00:20:38;101159.53;;;16.45;100.00
48636;BME280;34429;52.332;5.614;2022-09-03T00:23:15;101168.03;;;16.42;100.00
48636;BME280;34429;52.332;5.614;2022-09-03T00:25:49;101165.63;;;16.39;100.00
48636;BME280;34429;52.332;5.614;2022-09-03T00:28:23;101159.03;;;16.50;100.00
48636;BME280;34429;52.332;5.614;2022-09-03T00:31:05;101161.06;;;16.40;100.00
48636;BME280;34429;52.332;5.614;2022-09-03T00:33:38;101155.09;;;16.20;100.00
48636;BME280;34429;52.332;5.614;2022-09-03T00:36:15;101157.81;;;16.20;100.00
48636;BME280;34429;52.332;5.614;2022-09-03T00:38:48;101159.31;;;16.22;100.00
48636;BME280;34429;52.332;5.614;2022-09-03T00:41:24;101157.97;;;16.18;100.00
48636;BME280;34429;52.332;5.614;2022-09-03T00:44:14;101152.00;;;16.15;100.00
48636;BME280;34429;52.332;5.614;2022-09-03T00:46:50;101159.13;;;16.16;100.00
48636;BME280;34429;52.332;5.614;2022-09-03T00:49:29;101155.41;;;16.17;100.00
48636;BME280;34429;52.332;5.614;2022-09-03T00:52:07;101155.88;;;16.04;100.00
48636;BME280;34429;52.332;5.614;2022-09-03T00:54:47;101151.63;;;16.01;100.00
48636;BME280;34429;52.332;5.614;2022-09-03T00:57:28;101154.38;;;16.09;100.00
48636;BME280;34429;52.332;5.614;2022-09-03T01:00:04;101154.38;;;16.09;100.00
48636;BME280;34429;52.332;5.614;2022-09-03T01:02:50;101159.44;;;16.04;100.00
48636;BME280;34429;52.332;5.614;2022-09-03T01:05:30;101157.72;;;15.95;100.00
48636;BME280;34429;52.332;5.614;2022-09-03T01:11:06;101148.47;;;15.80;100.00
48636;BME280;34429;52.332;5.614;2022-09-03T01:13:41;101157.31;;;15.82;100.00
48636;BME280;34429;52.332;5.614;2022-09-03T01:16:20;101148.59;;;15.70;100.00
48636;BME280;34429;52.332;5.614;2022-09-03T01:18:55;101153.53;;;15.74;100.00
48636;BME280;34429;52.332;5.614;2022-09-03T01:21:43;101159.78;;;15.75;100.00
48636;BME280;34429;52.332;5.614;2022-09-03T01:24:40;101154.63;;;15.82;100.00
48636;BME280;34429;52.332;5.614;2022-09-03T01:27:27;101160.22;;;15.80;100.00
48636;BME280;34429;52.332;5.614;2022-09-03T01:30:04;101167.53;;;15.88;100.00
48636;BME280;34429;52.332;5.614;2022-09-03T01:32:39;101161.75;;;15.83;100.00
48636;BME280;34429;52.332;5.614;2022-09-03T01:35:16;101163.59;;;15.82;100.00
48636;BME280;34429;52.332;5.614;2022-09-03T01:38:00;101162.75;;;15.82;100.00
48636;BME280;34429;52.332;5.614;2022-09-03T01:40:41;101164.22;;;15.76;100.00
48636;BME280;34429;52.332;5.614;2022-09-03T01:43:22;101159.63;;;15.76;100.00
48636;BME280;34429;52.332;5.614;2022-09-03T01:46:07;101154.53;;;15.73;100.00
48636;BME280;34429;52.332;5.614;2022-09-03T01:48:44;101158.78;;;15.76;100.00
48636;BME280;34429;52.332;5.614;2022-09-03T01:51:19;101155.63;;;15.81;100.00
48636;BME280;34429;52.332;5.614;2022-09-03T01:57:17;101161.44;;;15.94;100.00
48636;BME280;34429;52.332;5.614;2022-09-03T01:59:53;101160.66;;;15.75;100.00
48636;BME280;34429;52.332;5.614;2022-09-03T02:02:28;101164.66;;;15.63;100.00
48636;BME280;34429;52.332;5.614;2022-09-03T02:05:02;101163.16;;;15.61;100.00
48636;BME280;34429;52.332;5.614;2022-09-03T02:07:34;101168.09;;;15.65;100.00
48636;BME280;34429;52.332;5.614;2022-09-03T02:10:06;101162.09;;;15.62;100.00
48636;BME280;34429;52.332;5.614;2022-09-03T02:12:36;101169.59;;;15.68;100.00
48636;BME280;34429;52.332;5.614;2022-09-03T02:15:11;101164.81;;;15.62;100.00
48636;BME280;34429;52.332;5.614;2022-09-03T02:17:44;101161.06;;;15.54;100.00
48636;BME280;34429;52.332;5.614;2022-09-03T02:20:16;101160.22;;;15.54;100.00
48636;BME280;34429;52.332;5.614;2022-09-03T02:22:48;101161.69;;;15.48;100.00
48636;BME280;34429;52.332;5.614;2022-09-03T02:25:16;101159.00;;;15.48;100.00
48636;BME280;34429;52.332;5.614;2022-09-03T02:27:45;101157.59;;;15.44;100.00
48636;BME280;34429;52.332;5.614;2022-09-03T02:30:16;101159.16;;;15.47;100.00
48636;BME280;34429;52.332;5.614;2022-09-03T02:32:47;101152.41;;;15.51;100.00
48636;BME280;34429;52.332;5.614;2022-09-03T02:35:16;101159.16;;;15.47;100.00
48636;BME280;34429;52.332;5.614;2022-09-03T02:37:44;101159.47;;;15.44;100.00
48636;BME280;34429;52.332;5.614;2022-09-03T02:40:12;101153.72;;;15.47;100.00
48636;BME280;34429;52.332;5.614;2022-09-03T02:42:41;101148.19;;;15.56;100.00
48636;BME280;34429;52.332;5.614;2022-09-03T02:45:19;101154.28;;;15.58;100.00
48636;BME280;34429;52.332;5.614;2022-09-03T02:47:54;101147.31;;;15.56;100.00
48636;BME280;34429;52.332;5.614;2022-09-03T02:50:23;101149.41;;;15.62;100.00
48636;BME280;34429;52.332;5.614;2022-09-03T02:52:52;101141.06;;;15.55;100.00
48636;BME280;34429;52.332;5.614;2022-09-03T02:55:20;101147.50;;;15.54;100.00
48636;BME280;34429;52.332;5.614;2022-09-03T02:57:49;101139.03;;;15.57;100.00
48636;BME280;34429;52.332;5.614;2022-09-03T03:00:17;101144.44;;;15.57;100.00
48636;BME280;34429;52.332;5.614;2022-09-03T03:02:45;101145.00;;;15.61;100.00
48636;BME280;34429;52.332;5.614;2022-09-03T03:05:22;101145.97;;;15.52;100.00
48636;BME280;34429;52.332;5.614;2022-09-03T03:07:51;101135.41;;;15.49;100.00
48636;BME280;34429;52.332;5.614;2022-09-03T03:10:20;101143.94;;;15.54;100.00
48636;BME280;34429;52.332;5.614;2022-09-03T03:12:48;101140.84;;;15.49;100.00
48636;BME280;34429;52.332;5.614;2022-09-03T03:15:16;101147.78;;;15.43;100.00
48636;BME280;34429;52.332;5.614;2022-09-03T03:17:45;101131.97;;;15.38;100.00
48636;BME280;34429;52.332;5.614;2022-09-03T03:20:15;101138.03;;;15.32;100.00
48636;BME280;34429;52.332;5.614;2022-09-03T03:22:45;101135.16;;;15.34;100.00
48636;BME280;34429;52.332;5.614;2022-09-03T03:25:13;101142.53;;;15.41;100.00
48636;BME280;34429;52.332;5.614;2022-09-03T03:27:42;101139.16;;;15.48;100.00
48636;BME280;34429;52.332;5.614;2022-09-03T03:30:11;101140.09;;;15.38;100.00
48636;BME280;34429;52.332;5.614;2022-09-03T03:32:39;101134.56;;;15.40;100.00
48636;BME280;34429;52.332;5.614;2022-09-03T03:35:08;101129.41;;;15.37;100.00
48636;BME280;34429;52.332;5.614;2022-09-03T03:37:40;101127.44;;;15.47;100.00
48636;BME280;34429;52.332;5.614;2022-09-03T03:40:09;101128.97;;;15.41;100.00
48636;BME280;34429;52.332;5.614;2022-09-03T03:42:38;101133.16;;;15.36;100.00
48636;BME280;34429;52.332;5.614;2022-09-03T03:45:08;101135.66;;;15.29;100.00
48636;BME280;34429;52.332;5.614;2022-09-03T03:47:37;101138.00;;;15.24;100.00
48636;BME280;34429;52.332;5.614;2022-09-03T03:50:06;101136.63;;;15.20;100.00
48636;BME280;34429;52.332;5.614;2022-09-03T03:52:34;101135.22;;;15.16;100.00
48636;BME280;34429;52.332;5.614;2022-09-03T03:55:06;101136.63;;;15.20;100.00
48636;BME280;34429;52.332;5.614;2022-09-03T03:57:34;101131.19;;;15.20;100.00
48636;BME280;34429;52.332;5.614;2022-09-03T04:00:04;101134.22;;;15.17;100.00
48636;BME280;34429;52.332;5.614;2022-09-03T04:02:33;101138.63;;;15.18;100.00
48636;BME280;34429;52.332;5.614;2022-09-03T04:05:01;101136.41;;;15.13;100.00
48636;BME280;34429;52.332;5.614;2022-09-03T04:07:29;101139.69;;;15.25;100.00
48636;BME280;34429;52.332;5.614;2022-09-03T04:09:58;101136.63;;;15.20;100.00
48636;BME280;34429;52.332;5.614;2022-09-03T04:12:28;101133.06;;;15.19;100.00
48636;BME280;34429;52.332;5.614;2022-09-03T04:14:57;101137.69;;;15.27;100.00
48636;BME280;34429;52.332;5.614;2022-09-03T04:17:26;101144.59;;;15.48;100.00
48636;BME280;34429;52.332;5.614;2022-09-03T04:19:55;101132.28;;;15.35;100.00
48636;BME280;34429;52.332;5.614;2022-09-03T04:22:23;101134.97;;;15.27;100.00
48636;BME280;34429;52.332;5.614;2022-09-03T04:24:51;101136.63;;;15.20;100.00
48636;BME280;34429;52.332;5.614;2022-09-03T04:27:20;101128.81;;;15.17;100.00
48636;BME280;34429;52.332;5.614;2022-09-03T04:29:50;101123.09;;;15.28;100.00
48636;BME280;34429;52.332;5.614;2022-09-03T04:32:19;101131.03;;;15.21;100.00
48636;BME280;34429;52.332;5.614;2022-09-03T04:35:03;101125.78;;;15.20;100.00
48636;BME280;34429;52.332;5.614;2022-09-03T04:37:32;101125.97;;;15.27;100.00
48636;BME280;34429;52.332;5.614;2022-09-03T04:40:00;101124.28;;;15.26;100.00
48636;BME280;34429;52.332;5.614;2022-09-03T04:42:29;101124.78;;;15.21;100.00
48636;BME280;34429;52.332;5.614;2022-09-03T04:45:00;101123.31;;;15.09;100.00
48636;BME280;34429;52.332;5.614;2022-09-03T04:47:28;101124.34;;;15.07;100.00
48636;BME280;34429;52.332;5.614;2022-09-03T04:49:57;101122.97;;;15.03;100.00
48636;BME280;34429;52.332;5.614;2022-09-03T04:52:27;101119.19;;;14.96;100.00
48636;BME280;34429;52.332;5.614;2022-09-03T04:54:56;101120.91;;;14.97;100.00
48636;BME280;34429;52.332;5.614;2022-09-03T04:57:24;101112.06;;;14.95;100.00
48636;BME280;34429;52.332;5.614;2022-09-03T05:00:01;101117.47;;;14.95;100.00
48636;BME280;34429;52.332;5.614;2022-09-03T05:02:30;101125.41;;;14.88;100.00
48636;BME280;34429;52.332;5.614;2022-09-03T05:04:58;101129.63;;;14.91;100.00
48636;BME280;34429;52.332;5.614;2022-09-03T05:07:27;101133.78;;;14.77;100.00
48636;BME280;34429;52.332;5.614;2022-09-03T05:10:04;101135.00;;;14.83;100.00
48636;BME280;34429;52.332;5.614;2022-09-03T05:12:32;101136.84;;;14.82;100.00
48636;BME280;34429;52.332;5.614;2022-09-03T05:15:04;101137.31;;;14.78;100.00
48636;BME280;34429;52.332;5.614;2022-09-03T05:17:33;101140.91;;;14.78;100.00
48636;BME280;34429;52.332;5.614;2022-09-03T05:20:03;101139.34;;;14.76;100.00
48636;BME280;34429;52.332;5.614;2022-09-03T05:22:32;101132.31;;;14.83;100.00
48636;BME280;34429;52.332;5.614;2022-09-03T05:25:01;101137.56;;;14.84;100.00
48636;BME280;34429;52.332;5.614;2022-09-03T05:27:30;101136.16;;;14.80;100.00
48636;BME280;34429;52.332;5.614;2022-09-03T05:29:58;101131.81;;;14.87;100.00
48636;BME280;34429;52.332;5.614;2022-09-03T05:32:31;101138.47;;;14.75;100.00
48636;BME280;34429;52.332;5.614;2022-09-03T05:34:59;101130.97;;;14.87;100.00
48636;BME280;34429;52.332;5.614;2022-09-03T05:37:28;101125.78;;;14.94;100.00
48636;BME280;34429;52.332;5.614;2022-09-03T05:39:56;101129.94;;;14.88;100.00
48636;BME280;34429;52.332;5.614;2022-09-03T05:42:24;101127.31;;;14.96;100.00
48636;BME280;34429;52.332;5.614;2022-09-03T05:44:52;101138.47;;;14.93;100.00
48636;BME280;34429;52.332;5.614;2022-09-03T05:47:21;101132.34;;;14.91;100.00
48636;BME280;34429;52.332;5.614;2022-09-03T05:49:52;101130.66;;;14.90;100.00
48636;BME280;34429;52.332;5.614;2022-09-03T05:52:20;101133.91;;;14.94;100.00
48636;BME280;34429;52.332;5.614;2022-09-03T05:54:49;101140.63;;;14.89;100.00
48636;BME280;34429;52.332;5.614;2022-09-03T05:57:17;101128.97;;;14.89;100.00
48636;BME280;34429;52.332;5.614;2022-09-03T05:59:45;101127.47;;;14.95;100.00
48636;BME280;34429;52.332;5.614;2022-09-03T06:02:14;101118.94;;;15.07;100.00
48636;BME280;34429;52.332;5.614;2022-09-03T06:04:44;101122.34;;;15.18;100.00
48636;BME280;34429;52.332;5.614;2022-09-03T06:07:15;101122.69;;;15.15;100.00
48636;BME280;34429;52.332;5.614;2022-09-03T06:09:43;101127.50;;;15.21;100.00
48636;BME280;34429;52.332;5.614;2022-09-03T06:12:11;101136.94;;;15.17;100.00
48636;BME280;34429;52.332;5.614;2022-09-03T06:14:40;101138.34;;;15.21;100.00
48636;BME280;34429;52.332;5.614;2022-09-03T06:17:08;101135.97;;;15.26;100.00
48636;BME280;34429;52.332;5.614;2022-09-03T06:19:39;101138.44;;;15.37;100.00
48636;BME280;34429;52.332;5.614;2022-09-03T06:22:07;101133.69;;;15.39;100.00
48636;BME280;34429;52.332;5.614;2022-09-03T06:24:38;101132.69;;;15.40;100.00
48636;BME280;34429;52.332;5.614;2022-09-03T06:27:06;101142.38;;;15.43;100.00
48636;BME280;34429;52.332;5.614;2022-09-03T06:29:35;101144.25;;;15.51;100.00
48636;BME280;34429;52.332;5.614;2022-09-03T06:32:04;101133.13;;;15.62;100.00
48636;BME280;34429;52.332;5.614;2022-09-03T06:34:32;101137.56;;;15.71;100.00
48636;BME280;34429;52.332;5.614;2022-09-03T06:37:01;101137.88;;;15.94;100.00
48636;BME280;34429;52.332;5.614;2022-09-03T06:39:29;101134.13;;;15.96;100.00
48636;BME280;34429;52.332;5.614;2022-09-03T06:42:00;101136.03;;;16.11;100.00
48636;BME280;34429;52.332;5.614;2022-09-03T06:44:29;101140.97;;;16.08;100.00
48636;BME280;34429;52.332;5.614;2022-09-03T06:46:57;101142.84;;;16.16;100.00
48636;BME280;34429;52.332;5.614;2022-09-03T06:49:25;101142.19;;;16.22;100.00
48636;BME280;34429;52.332;5.614;2022-09-03T06:51:55;101143.53;;;16.26;100.00
48636;BME280;34429;52.332;5.614;2022-09-03T06:54:24;101150.00;;;16.25;100.00
48636;BME280;34429;52.332;5.614;2022-09-03T06:56:52;101147.28;;;16.41;100.00
48636;BME280;34429;52.332;5.614;2022-09-03T06:59:23;101140.53;;;16.62;100.00
48636;BME280;34429;52.332;5.614;2022-09-03T07:01:52;101151.75;;;16.59;100.00
48636;BME280;34429;52.332;5.614;2022-09-03T07:04:22;101142.41;;;16.45;100.00
48636;BME280;34429;52.332;5.614;2022-09-03T07:06:51;101155.81;;;16.46;100.00
48636;BME280;34429;52.332;5.614;2022-09-03T07:09:20;101153.94;;;16.39;100.00
48636;BME280;34429;52.332;5.614;2022-09-03T07:11:48;101167.84;;;16.44;100.00
48636;BME280;34429;52.332;5.614;2022-09-03T07:14:17;101159.91;;;16.51;100.00
48636;BME280;34429;52.332;5.614;2022-09-03T07:16:49;101160.56;;;16.44;100.00
48636;BME280;34429;52.332;5.614;2022-09-03T07:19:17;101153.28;;;16.61;100.00
48636;BME280;34429;52.332;5.614;2022-09-03T07:21:46;101156.16;;;16.60;100.00
48636;BME280;34429;52.332;5.614;2022-09-03T07:24:14;101155.31;;;16.68;100.00
48636;BME280;34429;52.332;5.614;2022-09-03T07:26:42;101156.72;;;16.88;100.00
48636;BME280;34429;52.332;5.614;2022-09-03T07:29:11;101156.72;;;16.96;100.00
48636;BME280;34429;52.332;5.614;2022-09-03T07:31:41;101150.41;;;17.12;100.00
48636;BME280;34429;52.332;5.614;2022-09-03T07:34:13;101154.09;;;17.36;100.00
48636;BME280;34429;52.332;5.614;2022-09-03T07:36:42;101152.53;;;17.58;100.00
48636;BME280;34429;52.332;5.614;2022-09-03T07:39:12;101148.47;;;17.85;100.00
48636;BME280;34429;52.332;5.614;2022-09-03T07:41:42;101149.16;;;17.96;100.00
48636;BME280;34429;52.332;5.614;2022-09-03T07:44:11;101155.31;;;18.21;100.00
48636;BME280;34429;52.332;5.614;2022-09-03T07:46:40;101150.03;;;18.19;100.00
48636;BME280;34429;52.332;5.614;2022-09-03T07:49:12;101148.56;;;18.40;100.00
48636;BME280;34429;52.332;5.614;2022-09-03T07:51:41;101150.03;;;18.51;99.29
48636;BME280;34429;52.332;5.614;2022-09-03T07:54:10;101162.84;;;18.65;100.00
48636;BME280;34429;52.332;5.614;2022-09-03T07:56:39;101159.84;;;18.83;100.00
48636;BME280;34429;52.332;5.614;2022-09-03T07:59:08;101164.34;;;18.99;95.68
48636;BME280;34429;52.332;5.614;2022-09-03T08:01:37;101163.28;;;19.00;100.00
48636;BME280;34429;52.332;5.614;2022-09-03T08:04:05;101156.81;;;19.16;98.71
48636;BME280;34429;52.332;5.614;2022-09-03T08:06:38;101157.22;;;19.43;98.52
48636;BME280;34429;52.332;5.614;2022-09-03T08:09:08;101161.22;;;19.55;89.04
48636;BME280;34429;52.332;5.614;2022-09-03T08:11:39;101158.94;;;19.59;93.98
48636;BME280;34429;52.332;5.614;2022-09-03T08:14:10;101157.34;;;19.65;93.72
48636;BME280;34429;52.332;5.614;2022-09-03T08:16:41;101155.66;;;19.93;93.01
48636;BME280;34429;52.332;5.614;2022-09-03T08:19:10;101161.59;;;19.82;89.68
48636;BME280;34429;52.332;5.614;2022-09-03T08:21:41;101150.75;;;20.04;88.43
48636;BME280;34429;52.332;5.614;2022-09-03T08:24:10;101158.19;;;20.31;89.16
48636;BME280;34429;52.332;5.614;2022-09-03T08:26:39;101159.38;;;20.44;87.06
48636;BME280;34429;52.332;5.614;2022-09-03T08:29:08;101157.44;;;20.59;89.53
48636;BME280;34429;52.332;5.614;2022-09-03T08:31:36;101160.72;;;20.70;80.48
48636;BME280;34429;52.332;5.614;2022-09-03T08:34:06;101158.69;;;20.78;84.24
48636;BME280;34429;52.332;5.614;2022-09-03T08:36:41;101157.16;;;21.19;82.04
48636;BME280;34429;52.332;5.614;2022-09-03T08:39:10;101159.13;;;21.32;82.11
48636;BME280;34429;52.332;5.614;2022-09-03T08:41:59;101157.97;;;21.20;79.94
48636;BME280;34429;52.332;5.614;2022-09-03T08:44:38;101150.63;;;21.20;81.00
48636;BME280;34429;52.332;5.614;2022-09-03T08:47:14;101156.00;;;21.35;73.76
48636;BME280;34429;52.332;5.614;2022-09-03T08:49:48;101153.28;;;21.42;73.55
48636;BME280;34429;52.332;5.614;2022-09-03T08:52:25;101149.63;;;21.56;75.53
48636;BME280;34429;52.332;5.614;2022-09-03T08:57:40;101145.88;;;22.12;72.40
48636;BME280;34429;52.332;5.614;2022-09-03T09:00:11;101146.16;;;22.37;67.86
48636;BME280;34429;52.332;5.614;2022-09-03T09:02:47;101154.22;;;22.46;72.41
48636;BME280;34429;52.332;5.614;2022-09-03T09:05:25;101150.75;;;22.30;72.06
48636;BME280;34429;52.332;5.614;2022-09-03T09:08:07;101149.63;;;22.80;65.73
48636;BME280;34429;52.332;5.614;2022-09-03T09:10:43;101148.75;;;22.59;67.91
48636;BME280;34429;52.332;5.614;2022-09-03T09:13:20;101148.75;;;22.66;65.38
48636;BME280;34429;52.332;5.614;2022-09-03T09:15:56;101158.91;;;22.92;63.92
48636;BME280;34429;52.332;5.614;2022-09-03T09:18:43;101145.84;;;22.94;64.33
48636;BME280;34429;52.332;5.614;2022-09-03T09:21:17;101147.13;;;23.12;69.09
48636;BME280;34429;52.332;5.614;2022-09-03T09:23:56;101143.31;;;23.13;61.77
48636;BME280;34429;52.332;5.614;2022-09-03T09:26:27;101137.78;;;23.33;63.65
48636;BME280;34429;52.332;5.614;2022-09-03T09:29:00;101146.88;;;23.20;62.19
48636;BME280;34429;52.332;5.614;2022-09-03T09:31:31;101147.22;;;23.64;64.87
48636;BME280;34429;52.332;5.614;2022-09-03T09:34:00;101137.47;;;23.74;62.09
48636;BME280;34429;52.332;5.614;2022-09-03T09:36:39;101135.56;;;23.75;58.98
48636;BME280;34429;52.332;5.614;2022-09-03T09:39:11;101142.47;;;23.98;61.37
48636;BME280;34429;52.332;5.614;2022-09-03T09:41:42;101138.38;;;24.13;59.95
48636;BME280;34429;52.332;5.614;2022-09-03T09:44:18;101136.38;;;23.82;56.31
48636;BME280;34429;52.332;5.614;2022-09-03T09:46:47;101130.34;;;24.12;56.43
48636;BME280;34429;52.332;5.614;2022-09-03T09:49:28;101133.56;;;24.41;56.82
48636;BME280;34429;52.332;5.614;2022-09-03T09:52:00;101130.69;;;24.68;55.12
48636;BME280;34429;52.332;5.614;2022-09-03T09:54:32;101133.81;;;24.71;53.62
48636;BME280;34429;52.332;5.614;2022-09-03T09:57:02;101141.22;;;24.39;54.78
48636;BME280;34429;52.332;5.614;2022-09-03T09:59:31;101135.22;;;24.48;54.69
48636;BME280;34429;52.332;5.614;2022-09-03T10:02:09;101138.38;;;24.52;54.05
48636;BME280;34429;52.332;5.614;2022-09-03T10:04:38;101136.63;;;24.90;55.31
48636;BME280;34429;52.332;5.614;2022-09-03T10:07:22;101139.56;;;24.95;53.64
48636;BME280;34429;52.332;5.614;2022-09-03T10:10:01;101130.94;;;25.10;51.51
48636;BME280;34429;52.332;5.614;2022-09-03T10:12:32;101130.31;;;25.33;53.42
48636;BME280;34429;52.332;5.614;2022-09-03T10:15:09;101129.44;;;25.58;52.02
48636;BME280;34429;52.332;5.614;2022-09-03T10:17:42;101119.63;;;25.62;49.54
48636;BME280;34429;52.332;5.614;2022-09-03T10:20:14;101116.56;;;25.51;50.47
48636;BME280;34429;52.332;5.614;2022-09-03T10:22:59;101108.09;;;25.83;48.13
48636;BME280;34429;52.332;5.614;2022-09-03T10:25:37;101109.41;;;25.81;50.58
48636;BME280;34429;52.332;5.614;2022-09-03T10:28:08;101102.88;;;25.94;50.42
48636;BME280;34429;52.332;5.614;2022-09-03T10:30:50;101105.38;;;26.02;50.73
48636;BME280;34429;52.332;5.614;2022-09-03T10:33:25;101103.28;;;25.97;48.84
48636;BME280;34429;52.332;5.614;2022-09-03T10:36:05;101105.53;;;25.70;48.03
48636;BME280;34429;52.332;5.614;2022-09-03T10:38:39;101112.22;;;25.93;47.16
48636;BME280;34429;52.332;5.614;2022-09-03T10:41:27;101097.75;;;25.97;47.65
48636;BME280;34429;52.332;5.614;2022-09-03T10:47:08;101092.56;;;26.62;47.01
48636;BME280;34429;52.332;5.614;2022-09-03T10:49:49;101090.97;;;26.84;46.53
48636;BME280;34429;52.332;5.614;2022-09-03T10:52:26;101096.47;;;26.84;46.17
48636;BME280;34429;52.332;5.614;2022-09-03T10:55:07;101091.44;;;26.81;46.47
48636;BME280;34429;52.332;5.614;2022-09-03T10:57:46;101092.25;;;27.17;47.44
48636;BME280;34429;52.332;5.614;2022-09-03T11:00:16;101086.88;;;26.99;45.43
48636;BME280;34429;52.332;5.614;2022-09-03T11:03:18;101094.78;;;27.42;49.77
48636;BME280;34429;52.332;5.614;2022-09-03T11:05:57;101096.00;;;27.11;47.31
48636;BME280;34429;52.332;5.614;2022-09-03T11:08:31;101076.19;;;26.79;44.13
48636;BME280;34429;52.332;5.614;2022-09-03T11:11:09;101091.94;;;27.02;44.62
48636;BME280;34429;52.332;5.614;2022-09-03T11:13:45;101091.19;;;26.83;45.44
48636;BME280;34429;52.332;5.614;2022-09-03T11:16:22;101084.00;;;26.82;43.79
48636;BME280;34429;52.332;5.614;2022-09-03T11:18:55;101092.63;;;27.09;45.46
48636;BME280;34429;52.332;5.614;2022-09-03T11:21:29;101085.91;;;27.05;44.47
48636;BME280;34429;52.332;5.614;2022-09-03T11:24:04;101085.91;;;27.28;43.87
48636;BME280;34429;52.332;5.614;2022-09-03T11:26:35;101088.25;;;27.60;45.04
48636;BME280;34429;52.332;5.614;2022-09-03T11:29:11;101081.28;;;27.70;44.81
48636;BME280;34429;52.332;5.614;2022-09-03T11:31:53;101075.09;;;27.39;45.86
48636;BME280;34429;52.332;5.614;2022-09-03T11:34:29;101080.28;;;27.76;45.31
48636;BME280;34429;52.332;5.614;2022-09-03T11:37:14;101076.53;;;27.82;43.99
48636;BME280;34429;52.332;5.614;2022-09-03T11:39:44;101069.56;;;27.79;42.73
48636;BME280;34429;52.332;5.614;2022-09-03T11:42:29;101072.94;;;27.82;42.03
48636;BME280;34429;52.332;5.614;2022-09-03T11:45:14;101066.53;;;27.81;42.28
48636;BME280;34429;52.332;5.614;2022-09-03T11:47:46;101055.91;;;28.02;41.37
48636;BME280;34429;52.332;5.614;2022-09-03T11:50:17;101061.63;;;28.12;40.81
48636;BME280;34429;52.332;5.614;2022-09-03T11:52:46;101065.81;;;27.98;43.19
48636;BME280;34429;52.332;5.614;2022-09-03T11:55:29;101062.22;;;28.14;42.10
48636;BME280;34429;52.332;5.614;2022-09-03T11:58:10;101061.78;;;27.65;40.09
48636;BME280;34429;52.332;5.614;2022-09-03T12:00:42;101061.91;;;28.27;42.81
48636;BME280;34429;52.332;5.614;2022-09-03T12:03:13;101071.41;;;28.31;41.24
48636;BME280;34429;52.332;5.614;2022-09-03T12:05:49;101060.84;;;28.45;40.24
48636;BME280;34429;52.332;5.614;2022-09-03T12:08:54;101062.34;;;28.53;41.57
48636;BME280;34429;52.332;5.614;2022-09-03T12:11:31;101059.25;;;28.66;41.21
48636;BME280;34429;52.332;5.614;2022-09-03T12:14:07;101066.19;;;28.35;40.23
48636;BME280;34429;52.332;5.614;2022-09-03T12:16:53;101055.47;;;28.56;43.27
48636;BME280;34429;52.332;5.614;2022-09-03T12:19:29;101067.44;;;28.44;40.58
48636;BME280;34429;52.332;5.614;2022-09-03T12:22:00;101073.25;;;28.43;41.36
48636;BME280;34429;52.332;5.614;2022-09-03T12:24:29;101060.00;;;28.45;40.03
48636;BME280;34429;52.332;5.614;2022-09-03T12:27:02;101058.75;;;28.53;39.38
48636;BME280;34429;52.332;5.614;2022-09-03T12:29:31;101054.13;;;28.75;43.93
48636;BME280;34429;52.332;5.614;2022-09-03T12:32:08;101063.31;;;28.76;38.12
48636;BME280;34429;52.332;5.614;2022-09-03T12:34:38;101068.91;;;28.98;42.86
48636;BME280;34429;52.332;5.614;2022-09-03T12:37:18;101074.91;;;29.29;38.47
48636;BME280;34429;52.332;5.614;2022-09-03T12:39:52;101061.81;;;29.07;38.91
48636;BME280;34429;52.332;5.614;2022-09-03T12:42:25;101063.22;;;28.88;38.83
48636;BME280;34429;52.332;5.614;2022-09-03T12:44:55;101063.41;;;28.64;39.93
48636;BME280;34429;52.332;5.614;2022-09-03T12:47:37;101061.94;;;28.95;40.89
48636;BME280;34429;52.332;5.614;2022-09-03T12:50:08;101059.63;;;29.09;39.21
48636;BME280;34429;52.332;5.614;2022-09-03T12:52:38;101065.00;;;29.16;39.31
48636;BME280;34429;52.332;5.614;2022-09-03T12:55:19;101049.03;;;29.67;37.06
48636;BME280;34429;52.332;5.614;2022-09-03T12:57:52;101054.97;;;29.98;38.77
48636;BME280;34429;52.332;5.614;2022-09-03T13:00:22;101056.41;;;29.34;39.51
48636;BME280;34429;52.332;5.614;2022-09-03T13:02:55;101059.88;;;29.91;37.16
48636;BME280;34429;52.332;5.614;2022-09-03T13:05:31;101041.75;;;30.11;37.08
48636;BME280;34429;52.332;5.614;2022-09-03T13:08:02;101048.25;;;30.21;35.59
48636;BME280;34429;52.332;5.614;2022-09-03T13:10:34;101043.09;;;29.81;37.50
48636;BME280;34429;52.332;5.614;2022-09-03T13:13:18;101038.00;;;29.95;37.78
48636;BME280;34429;52.332;5.614;2022-09-03T13:16:20;101049.59;;;29.92;38.71
48636;BME280;34429;52.332;5.614;2022-09-03T13:19:00;101050.09;;;29.61;39.06
48636;BME280;34429;52.332;5.614;2022-09-03T13:21:40;101052.00;;;29.83;39.51
48636;BME280;34429;52.332;5.614;2022-09-03T13:27:11;101037.25;;;30.04;36.72